createdAt,value
2019-03-21T00:00:56.232Z,93.10
2019-03-21T00:03:25.575Z,93.00
2019-03-21T00:05:54.908Z,93.10
2019-03-21T00:08:24.325Z,93.00
2019-03-21T00:11:31.656Z,93.30
2019-03-21T00:14:07.324Z,92.90
2019-03-21T00:16:35.190Z,93.00
2019-03-21T00:19:04.543Z,93.10
2019-03-21T00:21:33.979Z,93.20
2019-03-21T00:24:03.332Z,93.10
2019-03-21T00:26:32.740Z,93.10
2019-03-21T00:29:02.081Z,93.10
2019-03-21T00:31:31.439Z,93.20
2019-03-21T00:34:00.771Z,93.20
2019-03-21T00:36:30.302Z,93.30
2019-03-21T00:39:01.366Z,93.30
2019-03-21T00:41:31.958Z,93.30
2019-03-21T00:44:01.338Z,93.20
2019-03-21T00:46:30.775Z,93.30
2019-03-21T00:49:05.178Z,93.30
2019-03-21T00:51:36.261Z,93.40
2019-03-21T00:54:05.767Z,93.30
2019-03-21T00:56:35.104Z,93.40
2019-03-21T00:59:05.990Z,93.50
2019-03-21T01:01:35.348Z,93.50
2019-03-21T01:04:04.829Z,93.70
2019-03-21T01:06:34.182Z,93.70
2019-03-21T01:09:05.205Z,93.70
2019-03-21T01:11:34.623Z,93.70
2019-03-21T01:14:04.988Z,93.60
2019-03-21T01:16:34.355Z,93.50
2019-03-21T01:19:03.815Z,93.50
2019-03-21T01:21:33.221Z,93.40
2019-03-21T01:24:02.561Z,93.40
2019-03-21T01:26:31.929Z,93.50
2019-03-21T01:29:01.371Z,93.50
2019-03-21T01:31:30.772Z,93.40
2019-03-21T01:34:00.159Z,93.40
2019-03-21T01:36:30.637Z,93.50
2019-03-21T01:39:00.004Z,93.50
2019-03-21T01:41:29.370Z,93.70
2019-03-21T01:43:59.488Z,93.90
2019-03-21T01:46:28.890Z,93.90
2019-03-21T01:48:58.236Z,93.90
2019-03-21T01:51:27.560Z,93.90
2019-03-21T01:53:56.986Z,94.00
2019-03-21T01:56:29.628Z,94.10
2019-03-21T01:58:59.051Z,94.20
2019-03-21T02:01:28.392Z,94.30
2019-03-21T02:03:57.747Z,94.30
2019-03-21T02:06:27.098Z,94.30
2019-03-21T02:08:56.506Z,94.30
2019-03-21T02:11:25.863Z,94.40
2019-03-21T02:13:55.285Z,94.30
2019-03-21T02:16:24.614Z,94.10
2019-03-21T02:18:53.968Z,93.90
2019-03-21T02:21:23.310Z,93.80
2019-03-21T02:23:52.717Z,93.90
2019-03-21T02:26:22.079Z,93.90
2019-03-21T02:28:51.420Z,93.90
2019-03-21T02:31:20.760Z,93.80
2019-03-21T02:33:50.140Z,93.70
2019-03-21T02:36:19.503Z,93.70
2019-03-21T02:38:48.938Z,93.60
2019-03-21T02:41:18.341Z,93.60
2019-03-21T02:43:47.846Z,93.50
2019-03-21T02:46:17.264Z,93.40
2019-03-21T02:48:46.692Z,93.40
2019-03-21T02:51:16.013Z,93.40
2019-03-21T02:53:45.472Z,93.40
2019-03-21T02:56:18.280Z,93.50
2019-03-21T02:58:47.717Z,93.50
2019-03-21T03:01:17.119Z,93.50
2019-03-21T03:03:46.443Z,93.50
2019-03-21T03:06:15.785Z,93.60
2019-03-21T03:08:45.122Z,93.50
2019-03-21T03:11:17.638Z,93.60
2019-03-21T03:13:49.594Z,93.60
2019-03-21T03:16:20.054Z,93.70
2019-03-21T03:18:49.583Z,93.70
2019-03-21T03:21:18.994Z,93.80
2019-03-21T03:23:48.422Z,93.90
2019-03-21T03:26:17.995Z,93.80
2019-03-21T03:28:47.895Z,93.80
2019-03-21T03:31:17.249Z,93.70
2019-03-21T03:33:46.656Z,93.60
2019-03-21T03:36:16.574Z,93.50
2019-03-21T03:38:45.992Z,93.50
2019-03-21T03:41:20.498Z,93.70
2019-03-21T03:43:49.157Z,93.50
2019-03-21T03:46:18.445Z,93.40
2019-03-21T03:48:47.792Z,93.70
2019-03-21T03:51:17.243Z,93.40
2019-03-21T03:53:46.663Z,93.30
2019-03-21T03:56:16.006Z,93.20
2019-03-21T03:58:54.084Z,93.20
2019-03-21T04:01:23.472Z,93.20
2019-03-21T04:03:52.838Z,93.10
2019-03-21T04:06:22.230Z,93.00
2019-03-21T04:09:30.923Z,93.10
2019-03-21T04:12:00.316Z,93.10
2019-03-21T04:14:29.662Z,93.20
2019-03-21T04:16:59.064Z,93.10
2019-03-21T04:19:28.549Z,93.00
2019-03-21T04:21:57.876Z,93.00
2019-03-21T04:24:27.472Z,93.00
2019-03-21T04:26:56.823Z,93.00
2019-03-21T04:29:26.287Z,93.00
2019-03-21T04:31:55.653Z,92.90
2019-03-21T04:34:25.305Z,92.90
2019-03-21T04:36:54.787Z,92.90
2019-03-21T04:39:24.195Z,92.90
2019-03-21T04:41:53.555Z,92.90
2019-03-21T04:44:23.033Z,92.80
2019-03-21T04:46:52.445Z,92.80
2019-03-21T04:49:21.823Z,92.80
2019-03-21T04:51:51.231Z,92.90
2019-03-21T04:54:20.623Z,92.90
2019-03-21T04:56:49.971Z,92.90
2019-03-21T04:59:19.389Z,93.00
2019-03-21T05:01:48.792Z,92.90
2019-03-21T05:04:18.180Z,93.00
2019-03-21T05:06:47.527Z,93.00
2019-03-21T05:09:17.926Z,93.10
2019-03-21T05:11:47.296Z,92.90
2019-03-21T05:14:16.744Z,92.90
2019-03-21T05:16:46.139Z,92.90
2019-03-21T05:19:16.667Z,92.90
2019-03-21T05:21:46.171Z,92.90
2019-03-21T05:24:15.509Z,93.30
2019-03-21T05:26:44.912Z,93.00
2019-03-21T05:29:14.322Z,93.10
2019-03-21T05:31:43.747Z,93.10
2019-03-21T05:34:13.148Z,93.20
2019-03-21T05:36:42.577Z,93.20
2019-03-21T05:39:12.382Z,93.10
2019-03-21T05:41:41.803Z,93.20
2019-03-21T05:44:23.113Z,93.20
2019-03-21T05:46:52.577Z,93.20
2019-03-21T05:49:22.529Z,93.20
2019-03-21T05:51:51.970Z,93.20
2019-03-21T05:54:21.349Z,93.20
2019-03-21T05:56:50.740Z,93.20
2019-03-21T05:59:21.220Z,93.10
2019-03-21T06:01:50.567Z,93.00
2019-03-21T06:04:20.010Z,92.90
2019-03-21T06:06:52.407Z,92.90
2019-03-21T06:09:23.441Z,92.80
2019-03-21T06:11:55.864Z,92.70
2019-03-21T06:14:25.679Z,92.60
2019-03-21T06:16:55.083Z,92.50
2019-03-21T06:19:30.324Z,92.30
2019-03-21T06:22:11.627Z,92.20
2019-03-21T06:24:53.027Z,92.30
2019-03-21T06:27:29.980Z,92.10
2019-03-21T06:29:59.726Z,91.90
2019-03-21T06:32:29.224Z,91.80
2019-03-21T06:34:58.663Z,91.70
2019-03-21T06:37:28.973Z,91.60
2019-03-21T06:39:58.514Z,91.60
2019-03-21T06:42:27.918Z,91.50
2019-03-21T06:44:57.335Z,91.50
2019-03-21T06:47:26.763Z,91.50
2019-03-21T06:49:56.178Z,91.40
2019-03-21T06:52:25.655Z,91.20
2019-03-21T06:54:55.186Z,90.90
2019-03-21T06:57:25.709Z,90.80
2019-03-21T06:59:55.236Z,90.80
2019-03-21T07:02:24.579Z,90.80
2019-03-21T07:04:53.952Z,90.80
2019-03-21T07:07:23.545Z,90.70
2019-03-21T07:09:54.056Z,90.80
2019-03-21T07:12:24.363Z,90.80
2019-03-21T07:14:54.883Z,90.90
2019-03-21T07:17:24.314Z,90.90
2019-03-21T07:19:54.339Z,90.90
2019-03-21T07:22:24.899Z,90.80
2019-03-21T07:24:56.936Z,90.80
2019-03-21T07:27:27.939Z,90.70
2019-03-21T07:29:57.284Z,90.60
2019-03-21T07:32:33.289Z,90.60
2019-03-21T07:34:57.725Z,90.70
2019-03-21T07:37:27.182Z,90.60
2019-03-21T07:39:56.566Z,90.40
2019-03-21T07:42:25.950Z,90.40
2019-03-21T07:44:55.306Z,90.40
2019-03-21T07:47:24.656Z,90.40
2019-03-21T07:49:54.012Z,90.40
2019-03-21T07:52:23.427Z,90.40
2019-03-21T07:54:56.074Z,90.30
2019-03-21T07:57:27.950Z,90.40
2019-03-21T08:00:07.492Z,90.40
2019-03-21T08:02:40.343Z,90.50
2019-03-21T08:05:14.837Z,90.50
2019-03-21T08:07:44.368Z,90.50
2019-03-21T08:10:17.431Z,90.60
2019-03-21T08:12:52.820Z,90.60
2019-03-21T08:15:22.952Z,90.50
2019-03-21T08:17:52.497Z,90.50
2019-03-21T08:20:21.903Z,90.50
2019-03-21T08:22:51.283Z,90.40
2019-03-21T08:25:20.636Z,90.40
2019-03-21T08:27:51.821Z,90.70
2019-03-21T08:30:24.179Z,90.70
2019-03-21T08:32:53.513Z,90.70
2019-03-21T08:35:22.964Z,91.00
2019-03-21T08:37:52.446Z,90.70
2019-03-21T08:40:21.777Z,90.70
2019-03-21T08:42:51.212Z,90.70
2019-03-21T08:45:20.555Z,90.60
2019-03-21T08:47:50.427Z,90.60
2019-03-21T08:50:20.032Z,90.50
2019-03-21T08:52:49.499Z,90.60
2019-03-21T08:55:18.869Z,90.60
2019-03-21T08:57:48.237Z,90.60
2019-03-21T09:00:19.060Z,90.60
2019-03-21T09:02:48.470Z,90.50
2019-03-21T09:05:17.912Z,90.40
2019-03-21T09:07:47.272Z,90.10
2019-03-21T09:10:16.666Z,89.60
2019-03-21T09:12:46.088Z,89.60
2019-03-21T09:15:16.721Z,88.70
2019-03-21T09:17:46.104Z,88.30
2019-03-21T09:20:15.609Z,87.70
2019-03-21T09:22:45.932Z,87.50
2019-03-21T09:25:15.347Z,87.40
2019-03-21T09:27:44.703Z,87.50
2019-03-21T09:30:15.613Z,87.10
2019-03-21T09:32:45.919Z,87.60
2019-03-21T09:35:15.324Z,87.20
2019-03-21T09:37:44.670Z,87.70
2019-03-21T09:40:14.451Z,88.10
2019-03-21T09:42:43.813Z,87.20
2019-03-21T09:45:13.558Z,86.20
2019-03-21T09:47:42.975Z,85.60
2019-03-21T09:50:15.408Z,85.10
2019-03-21T09:52:44.789Z,84.60
2019-03-21T09:55:14.212Z,84.00
2019-03-21T09:57:43.573Z,83.90
2019-03-21T10:00:14.925Z,83.20
2019-03-21T10:02:44.328Z,83.80
2019-03-21T10:05:13.774Z,84.20
2019-03-21T10:07:43.171Z,84.10
2019-03-21T10:10:15.657Z,84.20
2019-03-21T10:12:44.992Z,83.90
2019-03-21T10:15:14.312Z,84.00
2019-03-21T10:17:43.661Z,84.00
2019-03-21T10:20:13.061Z,83.80
2019-03-21T10:22:42.400Z,84.00
2019-03-21T10:25:11.724Z,84.70
2019-03-21T10:27:41.064Z,85.20
2019-03-21T10:30:11.359Z,85.70
2019-03-21T10:32:40.694Z,85.70
2019-03-21T10:35:10.112Z,85.20
2019-03-21T10:37:40.602Z,85.10
2019-03-21T10:40:10.722Z,84.50
2019-03-21T10:42:40.853Z,84.70
2019-03-21T10:45:10.259Z,84.60
2019-03-21T10:47:39.620Z,83.50
2019-03-21T10:50:09.027Z,83.20
2019-03-21T10:52:38.387Z,82.90
2019-03-21T10:55:07.728Z,82.50
2019-03-21T10:57:37.191Z,82.60
2019-03-21T11:00:08.155Z,82.60
2019-03-21T11:02:37.557Z,81.90
2019-03-21T11:05:07.274Z,82.00
2019-03-21T11:07:36.662Z,81.50
2019-03-21T11:10:08.307Z,81.40
2019-03-21T11:12:37.724Z,81.20
2019-03-21T11:15:07.204Z,81.10
2019-03-21T11:17:36.535Z,81.40
2019-03-21T11:20:06.540Z,81.60
2019-03-21T11:22:35.962Z,81.60
2019-03-21T11:25:08.220Z,81.00
2019-03-21T11:27:37.616Z,81.10
2019-03-21T11:30:15.669Z,81.30
2019-03-21T11:32:38.555Z,81.40
2019-03-21T11:35:08.032Z,81.50
2019-03-21T11:37:38.571Z,81.20
2019-03-21T11:40:08.751Z,80.80
2019-03-21T11:42:38.187Z,80.40
2019-03-21T11:45:08.426Z,80.60
2019-03-21T11:47:42.073Z,80.90
2019-03-21T11:50:12.872Z,80.20
2019-03-21T11:52:42.244Z,80.00
2019-03-21T11:55:11.878Z,79.80
2019-03-21T11:57:41.270Z,79.50
2019-03-21T12:00:13.042Z,79.50
2019-03-21T12:02:42.504Z,80.20
2019-03-21T12:05:11.970Z,80.80
2019-03-21T12:07:41.313Z,81.20
2019-03-21T12:10:12.407Z,81.50
2019-03-21T12:12:41.752Z,81.50
2019-03-21T12:15:12.052Z,81.40
2019-03-21T12:17:41.408Z,81.30
2019-03-21T12:20:22.790Z,81.00
2019-03-21T12:22:52.134Z,81.00
2019-03-21T12:25:21.471Z,80.80
2019-03-21T12:27:51.740Z,80.50
2019-03-21T12:30:36.325Z,80.80
2019-03-21T12:33:11.975Z,81.20
2019-03-21T12:35:41.487Z,80.90
2019-03-21T12:38:10.953Z,80.80
2019-03-21T12:40:41.500Z,80.60
2019-03-21T12:43:10.897Z,80.10
2019-03-21T12:45:40.292Z,80.60
2019-03-21T12:48:09.697Z,80.50
2019-03-21T12:50:39.039Z,81.40
2019-03-21T12:53:08.508Z,81.60
2019-03-21T12:55:37.850Z,81.70
2019-03-21T12:58:07.281Z,82.30
2019-03-21T13:00:38.582Z,82.00
2019-03-21T13:03:08.145Z,82.70
2019-03-21T13:05:37.568Z,83.00
2019-03-21T13:08:06.993Z,82.90
2019-03-21T13:10:36.707Z,82.50
2019-03-21T13:13:06.766Z,82.10
2019-03-21T13:15:36.197Z,82.50
2019-03-21T13:18:06.231Z,81.60
2019-03-21T13:20:35.573Z,83.10
2019-03-21T13:23:05.927Z,82.30
2019-03-21T13:25:35.592Z,82.20
2019-03-21T13:28:05.735Z,82.60
2019-03-21T13:30:35.348Z,82.90
2019-03-21T13:33:05.339Z,82.80
2019-03-21T13:35:34.771Z,82.60
2019-03-21T13:38:04.376Z,82.50
2019-03-21T13:40:36.599Z,82.60
2019-03-21T13:43:07.750Z,83.40
2019-03-21T13:45:37.120Z,83.30
2019-03-21T13:48:06.541Z,83.00
2019-03-21T13:50:35.876Z,83.00
2019-03-21T13:53:17.879Z,82.70
2019-03-21T13:55:36.904Z,83.20
2019-03-21T13:58:06.267Z,83.00
2019-03-21T14:00:35.663Z,82.70
2019-03-21T14:03:05.072Z,82.30
2019-03-21T14:05:35.535Z,82.10
2019-03-21T14:08:06.254Z,81.80
2019-03-21T14:10:35.602Z,82.10
2019-03-21T14:13:04.933Z,81.50
2019-03-21T14:15:34.342Z,81.60
2019-03-21T14:18:04.254Z,81.20
2019-03-21T14:20:33.588Z,80.60
2019-03-21T14:23:02.930Z,80.40
2019-03-21T14:25:32.260Z,81.10
2019-03-21T14:28:01.659Z,79.70
2019-03-21T14:30:30.983Z,79.40
2019-03-21T14:33:00.319Z,79.50
2019-03-21T14:35:29.699Z,79.30
2019-03-21T14:37:59.049Z,79.60
2019-03-21T14:40:28.371Z,79.60
2019-03-21T14:42:57.871Z,79.60
2019-03-21T14:45:27.327Z,78.80
2019-03-21T14:47:57.530Z,79.50
2019-03-21T14:50:26.853Z,79.40
2019-03-21T14:52:56.197Z,79.20
2019-03-21T14:55:25.603Z,78.70
2019-03-21T14:57:55.003Z,78.70
2019-03-21T15:00:24.416Z,79.00
2019-03-21T15:02:53.780Z,78.20
2019-03-21T15:05:23.176Z,77.60
2019-03-21T15:07:52.495Z,76.90
2019-03-21T15:10:21.938Z,76.90
2019-03-21T15:12:51.357Z,77.10
2019-03-21T15:15:20.690Z,77.20
2019-03-21T15:17:50.023Z,77.20
2019-03-21T15:20:19.478Z,77.90
2019-03-21T15:22:48.865Z,78.30
2019-03-21T15:25:18.210Z,78.90
2019-03-21T15:27:47.575Z,79.00
2019-03-21T15:30:20.663Z,79.90
2019-03-21T15:32:50.381Z,80.20
2019-03-21T15:35:20.471Z,80.30
2019-03-21T15:37:49.903Z,79.90
2019-03-21T15:40:19.287Z,79.80
2019-03-21T15:42:48.690Z,79.50
2019-03-21T15:45:23.646Z,79.80
2019-03-21T15:47:49.648Z,79.60
2019-03-21T15:50:37.080Z,79.70
2019-03-21T15:53:06.106Z,79.60
2019-03-21T15:55:35.634Z,79.50
2019-03-21T15:58:05.184Z,80.00
2019-03-21T16:00:38.047Z,80.10
2019-03-21T16:03:08.626Z,80.00
2019-03-21T16:05:38.027Z,80.00
2019-03-21T16:08:08.945Z,80.10
2019-03-21T16:10:38.870Z,80.40
2019-03-21T16:13:08.250Z,80.80
2019-03-21T16:15:37.621Z,81.00
2019-03-21T16:18:07.096Z,81.40
2019-03-21T16:20:36.428Z,81.10
2019-03-21T16:23:05.872Z,81.40
2019-03-21T16:25:35.304Z,81.70
2019-03-21T16:28:04.794Z,82.40
2019-03-21T16:30:34.160Z,82.70
2019-03-21T16:33:03.628Z,83.30
2019-03-21T16:35:32.979Z,83.70
2019-03-21T16:38:02.355Z,84.60
2019-03-21T16:40:31.798Z,85.20
2019-03-21T16:43:01.235Z,85.50
2019-03-21T16:45:30.594Z,85.90
2019-03-21T16:47:59.966Z,86.00
2019-03-21T16:50:29.347Z,86.50
2019-03-21T16:52:58.739Z,86.70
2019-03-21T16:55:28.207Z,87.10
2019-03-21T16:57:57.599Z,87.60
2019-03-21T17:00:26.975Z,88.00
2019-03-21T17:02:56.388Z,88.60
2019-03-21T17:05:25.867Z,89.20
2019-03-21T17:07:55.216Z,89.50
2019-03-21T17:10:24.713Z,90.10
2019-03-21T17:12:54.157Z,90.20
2019-03-21T17:15:23.898Z,90.40
2019-03-21T17:17:53.375Z,90.50
2019-03-21T17:20:22.748Z,90.70
2019-03-21T17:22:52.083Z,90.70
2019-03-21T17:25:21.425Z,91.00
2019-03-21T17:27:50.844Z,91.20
2019-03-21T17:30:21.324Z,91.20
2019-03-21T17:32:52.125Z,91.50
2019-03-21T17:35:22.587Z,91.30
2019-03-21T17:37:52.524Z,91.60
2019-03-21T17:40:21.944Z,91.60
2019-03-21T17:42:51.339Z,91.70
2019-03-21T17:45:21.997Z,91.90
2019-03-21T17:47:52.620Z,91.90
2019-03-21T17:50:22.010Z,92.10
2019-03-21T17:52:51.355Z,92.20
2019-03-21T17:55:20.695Z,92.40
2019-03-21T17:57:50.040Z,92.50
2019-03-21T18:00:32.614Z,92.70
2019-03-21T18:03:02.101Z,92.90
2019-03-21T18:05:31.485Z,93.20
2019-03-21T18:08:00.904Z,93.30
2019-03-21T18:10:32.683Z,94.20
2019-03-21T18:13:03.422Z,93.70
2019-03-21T18:15:33.380Z,93.90
2019-03-21T18:18:03.203Z,94.00
2019-03-21T18:20:32.602Z,94.20
2019-03-21T18:23:02.047Z,94.20
2019-03-21T18:25:31.430Z,94.20
2019-03-21T18:28:00.891Z,94.30
2019-03-21T18:30:30.255Z,94.40
2019-03-21T18:32:59.679Z,94.50
2019-03-21T18:35:29.088Z,94.70
2019-03-21T18:37:58.449Z,95.00
2019-03-21T18:40:29.013Z,94.90
2019-03-21T18:42:59.822Z,95.00
2019-03-21T18:45:29.195Z,95.40
2019-03-21T18:47:58.570Z,95.30
2019-03-21T18:50:28.036Z,95.70
2019-03-21T18:52:57.454Z,95.50
2019-03-21T18:55:26.801Z,95.50
2019-03-21T18:57:56.420Z,95.30
2019-03-21T19:00:25.800Z,95.10
2019-03-21T19:02:55.241Z,95.30
2019-03-21T19:05:25.511Z,95.50
2019-03-21T19:07:54.908Z,95.80
2019-03-21T19:10:24.275Z,95.80
2019-03-21T19:12:53.647Z,95.90
2019-03-21T19:15:22.994Z,95.90
2019-03-21T19:17:52.348Z,96.00
2019-03-21T19:20:21.766Z,96.20
2019-03-21T19:22:51.132Z,96.40
2019-03-21T19:25:20.551Z,96.40
2019-03-21T19:27:50.032Z,96.10
2019-03-21T19:30:20.549Z,95.90
2019-03-21T19:32:49.946Z,95.90
2019-03-21T19:35:20.743Z,96.20
2019-03-21T19:37:50.132Z,96.60
2019-03-21T19:40:20.482Z,96.50
2019-03-21T19:42:50.066Z,96.20
2019-03-21T19:45:20.182Z,96.10
2019-03-21T19:47:49.622Z,96.40
2019-03-21T19:50:20.401Z,96.60
2019-03-21T19:52:50.117Z,96.40
2019-03-21T19:55:30.241Z,96.30
2019-03-21T19:57:52.218Z,96.60
2019-03-21T20:00:23.027Z,96.50
2019-03-21T20:02:52.571Z,96.70
2019-03-21T20:05:22.127Z,96.60
2019-03-21T20:07:51.567Z,96.50
2019-03-21T20:10:22.135Z,96.80
2019-03-21T20:12:51.533Z,96.80
2019-03-21T20:15:21.001Z,96.90
2019-03-21T20:17:51.723Z,96.90
2019-03-21T20:20:21.131Z,96.70
2019-03-21T20:22:50.549Z,96.80
2019-03-21T20:25:20.504Z,96.80
2019-03-21T20:27:49.838Z,96.80
2019-03-21T20:30:21.729Z,96.70
2019-03-21T20:32:51.068Z,96.50
2019-03-21T20:35:20.509Z,96.30
2019-03-21T20:37:50.991Z,96.40
2019-03-21T20:40:20.658Z,96.20
2019-03-21T20:42:50.104Z,96.10
2019-03-21T20:45:20.706Z,96.40
2019-03-21T20:47:50.139Z,96.00
2019-03-21T20:50:20.215Z,96.10
2019-03-21T20:52:49.643Z,96.10
2019-03-21T20:55:19.053Z,96.20
2019-03-21T20:57:48.442Z,96.20
2019-03-21T21:00:23.097Z,96.30
2019-03-21T21:02:53.701Z,96.40
2019-03-21T21:05:23.475Z,96.40
2019-03-21T21:07:53.300Z,96.40
2019-03-21T21:10:22.725Z,96.50
2019-03-21T21:12:52.107Z,96.50
2019-03-21T21:15:21.451Z,96.60
2019-03-21T21:17:50.861Z,96.50
2019-03-21T21:20:20.215Z,96.60
2019-03-21T21:22:49.906Z,96.70
2019-03-21T21:25:20.697Z,96.70
2019-03-21T21:27:50.486Z,96.70
2019-03-21T21:30:21.440Z,96.90
2019-03-21T21:32:51.253Z,96.80
2019-03-21T21:35:20.628Z,96.90
2019-03-21T21:37:50.052Z,96.80
2019-03-21T21:40:19.604Z,97.10
2019-03-21T21:42:50.185Z,97.20
2019-03-21T21:45:19.633Z,97.20
2019-03-21T21:47:49.041Z,97.20
2019-03-21T21:50:18.547Z,97.30
2019-03-21T21:52:47.907Z,97.40
2019-03-21T21:55:17.365Z,97.50
2019-03-21T21:57:47.709Z,97.40
2019-03-21T22:00:21.951Z,97.40
2019-03-21T22:02:51.482Z,97.50
2019-03-21T22:05:20.864Z,97.60
2019-03-21T22:07:50.192Z,97.60
2019-03-21T22:10:19.600Z,97.70
2019-03-21T22:12:48.945Z,97.80
2019-03-21T22:15:18.375Z,97.80
2019-03-21T22:17:47.855Z,98.00
2019-03-21T22:20:17.667Z,97.80
2019-03-21T22:22:47.088Z,97.90
2019-03-21T22:25:17.740Z,98.00
2019-03-21T22:27:47.320Z,98.00
2019-03-21T22:30:19.013Z,98.10
2019-03-21T22:32:50.394Z,98.30
2019-03-21T22:35:20.227Z,98.30
2019-03-21T22:37:51.779Z,98.40
2019-03-21T22:40:20.842Z,98.50
2019-03-21T22:42:50.236Z,98.40
2019-03-21T22:45:19.565Z,98.90
2019-03-21T22:47:50.548Z,98.80
2019-03-21T22:50:20.040Z,98.90
2019-03-21T22:52:49.965Z,99.20
2019-03-21T22:55:19.300Z,99.60
2019-03-21T22:57:48.714Z,99.70
2019-03-21T23:00:42.283Z,99.60
2019-03-21T23:03:12.921Z,99.60
2019-03-21T23:05:42.263Z,99.90
2019-03-21T23:08:11.654Z,99.40
2019-03-21T23:10:41.042Z,99.40
2019-03-21T23:13:10.569Z,99.90
2019-03-21T23:15:40.051Z,99.90
2019-03-21T23:18:09.404Z,99.90
2019-03-21T23:20:38.835Z,99.80
2019-03-21T23:23:08.643Z,99.90
2019-03-21T23:25:37.980Z,99.90
2019-03-21T23:28:08.795Z,99.90
2019-03-21T23:30:38.236Z,99.90
2019-03-21T23:33:07.623Z,99.90
2019-03-21T23:35:36.966Z,99.90
2019-03-21T23:38:07.957Z,99.90
2019-03-21T23:40:37.421Z,99.90
2019-03-21T23:43:06.761Z,99.90
2019-03-21T23:45:36.112Z,99.90
2019-03-21T23:48:08.438Z,99.90
2019-03-21T23:50:37.840Z,99.90
2019-03-21T23:53:07.249Z,99.90
2019-03-21T23:55:36.647Z,99.90
2019-03-21T23:58:06.999Z,99.90
